createdAt,value
2017-07-04T00:01:10.463Z,91.60
2017-07-04T00:03:38.624Z,91.70
2017-07-04T00:06:06.053Z,91.70
2017-07-04T00:08:33.472Z,91.60
2017-07-04T00:11:00.891Z,91.80
2017-07-04T00:13:28.320Z,91.80
2017-07-04T00:15:56.299Z,92.00
2017-07-04T00:18:23.720Z,91.90
2017-07-04T00:20:51.142Z,91.90
2017-07-04T00:23:18.559Z,91.90
2017-07-04T00:25:45.989Z,92.00
2017-07-04T00:28:13.443Z,92.10
2017-07-04T00:30:40.851Z,92.10
2017-07-04T00:33:08.283Z,92.20
2017-07-04T00:35:35.707Z,92.20
2017-07-04T00:38:03.119Z,92.30
2017-07-04T00:40:30.556Z,92.40
2017-07-04T00:42:58.360Z,92.30
2017-07-04T00:45:25.814Z,92.30
2017-07-04T00:47:53.251Z,92.30
2017-07-04T00:50:20.704Z,92.30
2017-07-04T00:52:48.127Z,92.30
2017-07-04T00:55:15.547Z,92.20
2017-07-04T00:57:42.963Z,92.20
2017-07-04T01:00:10.393Z,92.20
2017-07-04T01:02:37.795Z,92.10
2017-07-04T01:05:05.223Z,92.30
2017-07-04T01:07:32.647Z,92.20
2017-07-04T01:10:00.063Z,92.20
2017-07-04T01:12:27.484Z,92.50
2017-07-04T01:14:55.667Z,92.30
2017-07-04T01:17:23.092Z,92.30
2017-07-04T01:19:51.279Z,92.10
2017-07-04T01:22:19.475Z,92.40
2017-07-04T01:24:46.897Z,92.40
2017-07-04T01:27:14.312Z,92.40
2017-07-04T01:29:41.738Z,92.20
2017-07-04T01:32:09.152Z,92.40
2017-07-04T01:34:36.571Z,92.30
2017-07-04T01:37:03.988Z,92.30
2017-07-04T01:39:32.177Z,92.30
2017-07-04T01:41:59.607Z,92.30
2017-07-04T01:44:27.026Z,92.50
2017-07-04T01:46:54.484Z,92.40
2017-07-04T01:49:21.915Z,92.40
2017-07-04T01:51:49.331Z,92.50
2017-07-04T01:54:17.532Z,92.30
2017-07-04T01:56:44.963Z,92.30
2017-07-04T01:59:13.144Z,92.20
2017-07-04T02:01:41.334Z,92.20
2017-07-04T02:04:08.753Z,92.20
2017-07-04T02:06:36.170Z,92.10
2017-07-04T02:09:03.611Z,92.10
2017-07-04T02:11:31.022Z,92.00
2017-07-04T02:13:58.443Z,92.10
2017-07-04T02:16:25.879Z,92.10
2017-07-04T02:18:53.291Z,92.00
2017-07-04T02:21:21.118Z,92.10
2017-07-04T02:23:48.552Z,92.00
2017-07-04T02:26:15.963Z,92.00
2017-07-04T02:28:43.381Z,92.10
2017-07-04T02:31:10.804Z,92.10
2017-07-04T02:33:38.991Z,91.80
2017-07-04T02:36:06.408Z,92.20
2017-07-04T02:38:33.827Z,91.70
2017-07-04T02:41:01.242Z,91.80
2017-07-04T02:43:29.426Z,91.80
2017-07-04T02:45:56.852Z,91.90
2017-07-04T02:48:24.264Z,91.90
2017-07-04T02:50:51.692Z,91.90
2017-07-04T02:53:19.885Z,92.20
2017-07-04T02:55:47.298Z,92.20
2017-07-04T02:58:15.474Z,92.60
2017-07-04T03:00:43.659Z,92.40
2017-07-04T03:03:11.864Z,92.40
2017-07-04T03:05:39.290Z,92.40
2017-07-04T03:08:07.472Z,92.40
2017-07-04T03:10:34.891Z,92.30
2017-07-04T03:13:02.316Z,92.30
2017-07-04T03:15:29.731Z,92.40
2017-07-04T03:17:57.932Z,92.40
2017-07-04T03:20:25.350Z,92.40
2017-07-04T03:22:52.759Z,92.40
2017-07-04T03:25:20.189Z,92.40
2017-07-04T03:27:47.611Z,92.50
2017-07-04T03:30:15.039Z,92.70
2017-07-04T03:32:42.471Z,92.70
2017-07-04T03:35:09.879Z,92.60
2017-07-04T03:37:37.299Z,92.70
2017-07-04T03:40:04.715Z,92.80
2017-07-04T03:42:32.138Z,92.70
2017-07-04T03:44:59.567Z,92.80
2017-07-04T03:47:26.991Z,92.80
2017-07-04T03:49:54.411Z,92.80
2017-07-04T03:52:21.836Z,92.80
2017-07-04T03:54:49.256Z,92.90
2017-07-04T03:57:16.683Z,92.80
2017-07-04T03:59:44.100Z,92.80
2017-07-04T04:02:11.499Z,93.10
2017-07-04T04:04:40.407Z,92.90
2017-07-04T04:07:07.827Z,92.80
2017-07-04T04:09:35.248Z,92.80
2017-07-04T04:12:02.668Z,92.80
2017-07-04T04:14:30.851Z,92.90
2017-07-04T04:16:58.267Z,92.90
2017-07-04T04:19:25.702Z,92.80
2017-07-04T04:21:53.162Z,92.80
2017-07-04T04:24:20.581Z,92.80
2017-07-04T04:26:48.180Z,92.70
2017-07-04T04:29:15.663Z,92.70
2017-07-04T04:31:43.081Z,92.40
2017-07-04T04:34:10.503Z,92.40
2017-07-04T04:36:38.728Z,92.30
2017-07-04T04:39:06.153Z,92.30
2017-07-04T04:41:34.479Z,92.20
2017-07-04T04:44:02.593Z,92.20
2017-07-04T04:46:30.011Z,91.90
2017-07-04T04:48:57.428Z,91.70
2017-07-04T04:51:24.847Z,91.70
2017-07-04T04:53:53.027Z,91.90
2017-07-04T04:56:20.451Z,91.90
2017-07-04T04:58:47.882Z,91.60
2017-07-04T05:01:15.287Z,91.50
2017-07-04T05:03:43.479Z,90.50
2017-07-04T05:06:10.911Z,90.50
2017-07-04T05:08:39.123Z,89.80
2017-07-04T05:11:06.544Z,89.80
2017-07-04T05:13:34.743Z,89.50
2017-07-04T05:16:02.169Z,89.40
2017-07-04T05:18:30.347Z,88.70
2017-07-04T05:20:58.543Z,88.40
2017-07-04T05:23:25.966Z,88.40
2017-07-04T05:25:54.148Z,87.30
2017-07-04T05:28:22.343Z,87.20
2017-07-04T05:30:49.761Z,87.20
2017-07-04T05:33:17.184Z,87.20
2017-07-04T05:35:44.605Z,87.20
2017-07-04T05:38:12.089Z,87.70
2017-07-04T05:40:39.503Z,87.30
2017-07-04T05:43:08.299Z,86.40
2017-07-04T05:45:35.719Z,86.30
2017-07-04T05:48:03.233Z,86.10
2017-07-04T05:50:30.653Z,84.20
2017-07-04T05:52:58.829Z,84.10
2017-07-04T05:58:01.049Z,82.80
2017-07-04T06:00:30.019Z,82.90
2017-07-04T06:02:57.434Z,82.70
2017-07-04T06:05:24.853Z,80.40
2017-07-04T06:07:52.333Z,80.60
2017-07-04T06:10:19.751Z,79.20
2017-07-04T06:12:47.179Z,79.50
2017-07-04T06:15:14.590Z,79.60
2017-07-04T06:17:42.000Z,78.80
2017-07-04T06:20:10.187Z,77.40
2017-07-04T06:22:37.603Z,77.30
2017-07-04T06:25:05.048Z,77.60
2017-07-04T06:27:32.456Z,77.10
2017-07-04T06:29:59.879Z,76.40
2017-07-04T06:32:27.307Z,75.70
2017-07-04T06:34:54.733Z,74.90
2017-07-04T06:37:22.935Z,75.20
2017-07-04T06:39:50.351Z,74.70
2017-07-04T06:42:17.867Z,74.00
2017-07-04T06:44:45.295Z,72.00
2017-07-04T06:47:12.903Z,70.80
2017-07-04T06:49:41.076Z,71.60
2017-07-04T06:52:08.495Z,71.60
2017-07-04T06:54:35.911Z,71.90
2017-07-04T06:57:03.332Z,72.50
2017-07-04T06:59:30.749Z,73.10
2017-07-04T07:01:58.155Z,72.10
2017-07-04T07:04:26.331Z,71.80
2017-07-04T07:06:54.513Z,72.60
2017-07-04T07:09:23.052Z,71.60
2017-07-04T07:11:50.467Z,71.50
2017-07-04T07:14:17.879Z,71.10
2017-07-04T07:16:45.299Z,70.50
2017-07-04T07:19:12.727Z,69.10
2017-07-04T07:21:40.151Z,69.20
2017-07-04T07:24:07.572Z,68.90
2017-07-04T07:26:34.989Z,68.70
2017-07-04T07:29:02.401Z,69.40
2017-07-04T07:31:29.815Z,68.60
2017-07-04T07:33:57.231Z,67.80
2017-07-04T07:36:24.652Z,65.80
2017-07-04T07:38:52.056Z,66.90
2017-07-04T07:41:20.238Z,64.10
2017-07-04T07:43:48.426Z,64.50
2017-07-04T07:46:15.848Z,64.30
2017-07-04T07:48:43.286Z,63.60
2017-07-04T07:51:10.699Z,62.70
2017-07-04T07:53:38.116Z,59.70
2017-07-04T07:56:05.535Z,61.10
2017-07-04T07:58:32.951Z,61.80
2017-07-04T08:01:01.136Z,62.30
2017-07-04T08:03:28.560Z,62.20
2017-07-04T08:05:56.754Z,59.80
2017-07-04T08:08:24.923Z,59.60
2017-07-04T08:10:53.105Z,60.10
2017-07-04T08:15:54.465Z,59.20
2017-07-04T08:18:22.645Z,58.20
2017-07-04T08:20:50.827Z,58.50
2017-07-04T08:23:18.296Z,58.50
2017-07-04T08:25:45.719Z,58.40
2017-07-04T08:28:16.797Z,58.00
2017-07-04T08:30:44.254Z,58.00
2017-07-04T08:33:11.664Z,58.40
2017-07-04T08:35:39.857Z,59.50
2017-07-04T08:38:07.336Z,59.40
2017-07-04T08:40:34.802Z,59.20
2017-07-04T08:43:02.218Z,57.10
2017-07-04T08:45:30.395Z,57.70
2017-07-04T08:47:57.838Z,57.60
2017-07-04T08:50:26.060Z,57.50
2017-07-04T08:52:53.518Z,57.50
2017-07-04T08:55:20.971Z,57.70
2017-07-04T08:57:48.407Z,57.90
2017-07-04T09:00:15.832Z,55.30
2017-07-04T09:02:44.027Z,55.60
2017-07-04T09:05:11.439Z,55.60
2017-07-04T09:07:38.848Z,56.00
2017-07-04T09:10:06.274Z,55.60
2017-07-04T09:12:34.498Z,56.90
2017-07-04T09:15:01.915Z,56.30
2017-07-04T09:17:29.331Z,56.60
2017-07-04T09:19:56.748Z,54.70
2017-07-04T09:22:24.173Z,54.30
2017-07-04T09:24:52.368Z,53.80
2017-07-04T09:27:19.775Z,53.80
2017-07-04T09:29:47.219Z,54.40
2017-07-04T09:32:14.640Z,55.00
2017-07-04T09:34:42.051Z,55.50
2017-07-04T09:37:09.468Z,55.70
2017-07-04T09:39:36.891Z,55.90
2017-07-04T09:42:04.318Z,53.70
2017-07-04T09:44:31.729Z,53.40
2017-07-04T09:46:59.262Z,52.90
2017-07-04T09:49:27.450Z,53.20
2017-07-04T09:51:54.842Z,53.20
2017-07-04T09:54:22.274Z,53.20
2017-07-04T09:56:49.688Z,53.90
2017-07-04T09:59:17.875Z,54.30
2017-07-04T10:01:45.292Z,54.30
2017-07-04T10:04:12.714Z,54.40
2017-07-04T10:06:40.127Z,53.90
2017-07-04T10:09:08.316Z,53.90
2017-07-04T10:11:36.489Z,53.60
2017-07-04T10:14:04.675Z,53.00
2017-07-04T10:16:32.087Z,52.90
2017-07-04T10:18:59.501Z,53.40
2017-07-04T10:21:26.930Z,53.70
2017-07-04T10:23:55.130Z,53.40
2017-07-04T10:26:22.535Z,53.40
2017-07-04T10:28:49.957Z,53.80
2017-07-04T10:31:17.385Z,53.30
2017-07-04T10:33:44.794Z,53.60
2017-07-04T10:36:12.217Z,53.10
2017-07-04T10:38:39.642Z,52.70
2017-07-04T10:41:07.045Z,53.20
2017-07-04T10:43:34.460Z,54.30
2017-07-04T10:46:01.909Z,53.60
2017-07-04T10:48:30.086Z,54.20
2017-07-04T10:50:57.491Z,54.10
2017-07-04T10:53:24.908Z,53.60
2017-07-04T10:55:52.326Z,53.70
2017-07-04T10:58:19.756Z,53.70
2017-07-04T11:00:47.191Z,53.40
2017-07-04T11:03:14.602Z,53.10
2017-07-04T11:05:42.796Z,52.10
2017-07-04T11:08:10.236Z,52.00
2017-07-04T11:10:38.431Z,52.00
2017-07-04T11:13:05.851Z,52.00
2017-07-04T11:15:33.274Z,52.00
2017-07-04T11:18:00.687Z,52.00
2017-07-04T11:20:28.110Z,51.60
2017-07-04T11:22:55.510Z,51.40
2017-07-04T11:25:22.923Z,50.90
2017-07-04T11:27:50.356Z,51.80
2017-07-04T11:30:17.787Z,51.40
2017-07-04T11:32:45.215Z,50.70
2017-07-04T11:35:13.407Z,50.10
2017-07-04T11:37:40.816Z,50.10
2017-07-04T11:40:08.223Z,50.10
2017-07-04T11:42:35.635Z,49.70
2017-07-04T11:45:03.147Z,49.70
2017-07-04T11:47:30.562Z,49.30
2017-07-04T11:49:58.790Z,49.30
2017-07-04T11:52:26.202Z,49.20
2017-07-04T11:54:53.616Z,49.50
2017-07-04T11:57:21.043Z,49.90
2017-07-04T11:59:48.459Z,49.50
2017-07-04T12:02:16.653Z,49.40
2017-07-04T12:04:44.814Z,48.50
2017-07-04T12:07:12.988Z,49.00
2017-07-04T12:09:41.174Z,49.10
2017-07-04T12:12:08.583Z,49.10
2017-07-04T12:14:36.003Z,48.90
2017-07-04T12:17:03.418Z,48.10
2017-07-04T12:19:31.588Z,46.50
2017-07-04T12:21:59.783Z,45.80
2017-07-04T12:24:27.191Z,45.80
2017-07-04T12:26:54.622Z,45.30
2017-07-04T12:29:22.021Z,44.90
2017-07-04T12:31:49.431Z,45.10
2017-07-04T12:34:16.856Z,42.90
2017-07-04T12:36:44.271Z,42.70
2017-07-04T12:39:11.703Z,41.90
2017-07-04T12:41:39.105Z,40.20
2017-07-04T12:44:07.294Z,38.40
2017-07-04T12:46:35.476Z,38.00
2017-07-04T12:49:02.887Z,38.00
2017-07-04T12:51:30.906Z,38.20
2017-07-04T12:53:58.391Z,38.40
2017-07-04T12:56:25.815Z,38.20
2017-07-04T12:58:53.991Z,34.90
2017-07-04T13:01:22.166Z,34.50
2017-07-04T13:03:49.575Z,34.50
2017-07-04T13:06:16.987Z,33.40
2017-07-04T13:08:44.407Z,34.70
2017-07-04T13:11:11.916Z,34.00
2017-07-04T13:13:39.333Z,32.90
2017-07-04T13:16:07.519Z,31.50
2017-07-04T13:18:34.935Z,31.40
2017-07-04T13:21:02.367Z,30.90
2017-07-04T13:23:29.791Z,31.00
2017-07-04T13:25:57.249Z,31.20
2017-07-04T13:28:24.660Z,30.00
2017-07-04T13:30:52.192Z,31.20
2017-07-04T13:33:19.640Z,30.40
2017-07-04T13:35:47.053Z,29.50
2017-07-04T13:38:15.235Z,28.50
2017-07-04T13:40:42.646Z,28.40
2017-07-04T13:43:10.055Z,29.40
2017-07-04T13:45:37.469Z,28.60
2017-07-04T13:48:04.951Z,27.80
2017-07-04T13:50:32.310Z,27.80
2017-07-04T13:53:00.484Z,27.60
2017-07-04T13:55:28.662Z,28.70
2017-07-04T13:57:56.098Z,28.70
2017-07-04T14:00:23.498Z,29.60
2017-07-04T14:02:50.959Z,29.10
2017-07-04T14:05:18.419Z,27.30
2017-07-04T14:07:45.887Z,27.20
2017-07-04T14:10:13.313Z,26.70
2017-07-04T14:12:40.723Z,26.80
2017-07-04T14:15:08.239Z,26.60
2017-07-04T14:17:35.675Z,26.40
2017-07-04T14:20:03.079Z,26.60
2017-07-04T14:22:30.499Z,26.00
2017-07-04T14:24:57.915Z,26.90
2017-07-04T14:27:25.327Z,28.70
2017-07-04T14:29:52.735Z,29.50
2017-07-04T14:32:20.916Z,28.50
2017-07-04T14:34:48.328Z,28.50
2017-07-04T14:37:15.753Z,27.90
2017-07-04T14:39:43.167Z,27.90
2017-07-04T14:42:11.349Z,27.00
2017-07-04T14:44:39.583Z,27.00
2017-07-04T14:47:07.052Z,26.60
2017-07-04T14:49:34.541Z,25.90
2017-07-04T14:52:02.751Z,26.20
2017-07-04T14:54:30.148Z,25.80
2017-07-04T14:56:57.556Z,26.30
2017-07-04T14:59:25.021Z,25.60
2017-07-04T15:01:52.808Z,25.40
2017-07-04T15:04:20.221Z,25.00
2017-07-04T15:06:47.639Z,24.90
2017-07-04T15:09:15.153Z,24.50
2017-07-04T15:11:42.572Z,24.80
2017-07-04T15:14:10.783Z,25.50
2017-07-04T15:16:38.201Z,25.50
2017-07-04T15:19:06.412Z,25.40
2017-07-04T15:21:33.827Z,25.40
2017-07-04T15:24:02.002Z,25.80
2017-07-04T15:26:30.179Z,25.80
2017-07-04T15:28:58.369Z,26.50
2017-07-04T15:31:26.550Z,27.30
2017-07-04T15:33:53.959Z,27.30
2017-07-04T15:36:21.372Z,28.20
2017-07-04T15:38:48.823Z,27.90
2017-07-04T15:41:16.235Z,26.90
2017-07-04T15:43:43.644Z,26.60
2017-07-04T15:46:11.347Z,27.40
2017-07-04T15:48:38.754Z,29.10
2017-07-04T15:51:06.163Z,29.40
2017-07-04T15:53:34.203Z,28.80
2017-07-04T15:56:01.611Z,28.70
2017-07-04T15:58:29.106Z,28.20
2017-07-04T16:00:56.501Z,28.60
2017-07-04T16:03:23.908Z,29.10
2017-07-04T16:05:51.329Z,28.90
2017-07-04T16:08:19.504Z,29.20
2017-07-04T16:10:47.684Z,30.00
2017-07-04T16:13:15.862Z,30.80
2017-07-04T16:15:43.280Z,30.80
2017-07-04T16:18:10.693Z,31.90
2017-07-04T16:20:38.096Z,32.10
2017-07-04T16:23:05.506Z,32.30
2017-07-04T16:25:32.924Z,32.50
2017-07-04T16:28:01.798Z,34.70
2017-07-04T16:30:29.623Z,34.60
2017-07-04T16:32:57.040Z,33.40
2017-07-04T16:35:25.239Z,34.70
2017-07-04T16:37:52.656Z,34.60
2017-07-04T16:40:20.065Z,35.00
2017-07-04T16:42:47.491Z,35.60
2017-07-04T16:45:15.675Z,36.30
2017-07-04T16:47:43.106Z,36.30
2017-07-04T16:50:11.295Z,37.00
2017-07-04T16:52:39.480Z,37.20
2017-07-04T16:55:06.893Z,37.20
2017-07-04T16:57:34.308Z,37.10
2017-07-04T17:00:01.762Z,37.30
2017-07-04T17:02:30.126Z,37.10
2017-07-04T17:04:57.544Z,37.30
2017-07-04T17:07:24.956Z,37.20
2017-07-04T17:09:52.364Z,37.50
2017-07-04T17:12:20.581Z,37.20
2017-07-04T17:14:48.008Z,37.20
2017-07-04T17:17:16.216Z,37.20
2017-07-04T17:19:43.628Z,37.10
2017-07-04T17:22:11.822Z,36.90
2017-07-04T17:24:39.308Z,36.90
2017-07-04T17:27:06.752Z,37.10
2017-07-04T17:29:35.033Z,37.40
2017-07-04T17:32:02.473Z,36.90
2017-07-04T17:34:30.634Z,37.30
2017-07-04T17:36:58.053Z,37.30
2017-07-04T17:39:25.459Z,38.30
2017-07-04T17:41:53.399Z,38.30
2017-07-04T17:44:20.903Z,37.50
2017-07-04T17:46:48.313Z,37.10
2017-07-04T17:49:16.487Z,35.60
2017-07-04T17:51:44.676Z,36.50
2017-07-04T17:54:12.092Z,36.50
2017-07-04T17:56:39.507Z,37.00
2017-07-04T17:59:06.907Z,36.10
2017-07-04T18:01:35.874Z,36.80
2017-07-04T18:04:03.284Z,36.80
2017-07-04T18:06:31.467Z,37.30
2017-07-04T18:08:58.885Z,37.30
2017-07-04T18:11:26.300Z,38.00
2017-07-04T18:13:53.703Z,39.00
2017-07-04T18:16:21.893Z,39.70
2017-07-04T18:18:49.311Z,39.70
2017-07-04T18:21:16.731Z,40.30
2017-07-04T18:23:44.138Z,40.50
2017-07-04T18:26:11.555Z,40.60
2017-07-04T18:28:38.955Z,41.00
2017-07-04T18:31:06.371Z,41.30
2017-07-04T18:33:33.788Z,41.70
2017-07-04T18:36:01.965Z,42.50
2017-07-04T18:38:29.372Z,42.50
2017-07-04T18:40:56.804Z,42.60
2017-07-04T18:43:24.224Z,43.00
2017-07-04T18:45:52.408Z,43.40
2017-07-04T18:48:19.811Z,43.40
2017-07-04T18:50:47.251Z,43.60
2017-07-04T18:53:14.673Z,43.70
2017-07-04T18:55:42.090Z,43.50
2017-07-04T18:58:09.510Z,44.00
2017-07-04T19:00:36.919Z,44.10
2017-07-04T19:03:05.094Z,46.00
2017-07-04T19:05:33.289Z,45.40
2017-07-04T19:08:00.703Z,45.40
2017-07-04T19:10:28.115Z,46.00
2017-07-04T19:12:55.540Z,46.80
2017-07-04T19:15:23.714Z,47.40
2017-07-04T19:17:51.907Z,47.30
2017-07-04T19:20:19.330Z,47.30
2017-07-04T19:22:46.735Z,47.70
2017-07-04T19:25:14.147Z,47.90
2017-07-04T19:27:41.583Z,48.30
2017-07-04T19:30:08.990Z,48.60
2017-07-04T19:32:36.409Z,48.60
2017-07-04T19:35:04.592Z,48.90
2017-07-04T19:37:32.784Z,48.90
2017-07-04T19:40:00.198Z,48.80
2017-07-04T19:42:27.631Z,49.40
2017-07-04T19:44:55.031Z,49.60
2017-07-04T19:47:23.234Z,50.20
2017-07-04T19:49:50.632Z,50.20
2017-07-04T19:52:18.074Z,50.00
2017-07-04T19:54:45.484Z,50.20
2017-07-04T19:57:12.907Z,50.40
2017-07-04T19:59:40.321Z,50.20
2017-07-04T20:02:07.735Z,50.60
2017-07-04T20:04:35.171Z,50.50
2017-07-04T20:07:02.585Z,50.90
2017-07-04T20:09:29.990Z,50.90
2017-07-04T20:11:58.170Z,51.30
2017-07-04T20:14:25.576Z,51.00
2017-07-04T20:16:52.991Z,51.10
2017-07-04T20:19:21.175Z,51.60
2017-07-04T20:24:23.335Z,52.90
2017-07-04T20:26:51.512Z,52.30
2017-07-04T20:29:18.927Z,52.30
2017-07-04T20:31:46.332Z,52.20
2017-07-04T20:34:13.743Z,52.40
2017-07-04T20:36:41.148Z,52.60
2017-07-04T20:39:09.157Z,52.80
2017-07-04T20:41:36.568Z,53.00
2017-07-04T20:44:04.746Z,53.00
2017-07-04T20:46:32.156Z,53.00
2017-07-04T20:48:59.586Z,53.10
2017-07-04T20:51:27.006Z,53.40
2017-07-04T20:53:55.176Z,53.10
2017-07-04T20:56:22.599Z,53.20
2017-07-04T20:58:50.000Z,53.30
2017-07-04T21:01:17.407Z,53.90
2017-07-04T21:03:44.824Z,53.60
2017-07-04T21:06:12.231Z,53.80
2017-07-04T21:08:39.664Z,53.60
2017-07-04T21:11:07.078Z,54.00
2017-07-04T21:13:35.495Z,53.80
2017-07-04T21:16:02.932Z,53.80
2017-07-04T21:18:30.367Z,53.90
2017-07-04T21:20:57.786Z,54.10
2017-07-04T21:23:25.203Z,54.30
2017-07-04T21:25:52.612Z,54.20
2017-07-04T21:28:20.789Z,54.40
2017-07-04T21:30:48.959Z,54.40
2017-07-04T21:33:17.169Z,54.40
2017-07-04T21:35:44.596Z,54.40
2017-07-04T21:38:12.767Z,54.40
2017-07-04T21:40:40.974Z,54.70
2017-07-04T21:43:08.382Z,54.70
2017-07-04T21:45:36.555Z,55.00
2017-07-04T21:48:04.744Z,54.90
2017-07-04T21:50:32.169Z,54.90
2017-07-04T21:52:59.576Z,54.80
2017-07-04T21:55:26.983Z,54.90
2017-07-04T21:57:54.399Z,54.60
2017-07-04T22:00:21.807Z,54.60
2017-07-04T22:02:49.983Z,54.80
2017-07-04T22:05:18.171Z,55.40
2017-07-04T22:07:45.597Z,55.40
2017-07-04T22:10:13.006Z,55.50
2017-07-04T22:12:40.413Z,55.40
2017-07-04T22:15:07.827Z,55.60
2017-07-04T22:17:35.847Z,55.70
2017-07-04T22:20:04.037Z,56.40
2017-07-04T22:22:31.442Z,56.40
2017-07-04T22:24:58.855Z,56.70
2017-07-04T22:27:26.260Z,56.60
2017-07-04T22:29:53.667Z,56.60
2017-07-04T22:32:21.091Z,56.70
2017-07-04T22:34:48.607Z,56.30
2017-07-04T22:37:16.021Z,56.60
2017-07-04T22:39:44.197Z,56.70
2017-07-04T22:42:12.378Z,56.90
2017-07-04T22:44:39.785Z,56.90
2017-07-04T22:47:07.204Z,57.00
2017-07-04T22:49:34.623Z,56.90
2017-07-04T22:52:02.027Z,57.00
2017-07-04T22:54:29.438Z,57.10
2017-07-04T22:56:57.617Z,57.30
2017-07-04T22:59:25.793Z,57.80
2017-07-04T23:01:53.996Z,57.90
2017-07-04T23:04:21.412Z,57.80
2017-07-04T23:06:49.587Z,57.90
2017-07-04T23:09:17.772Z,57.90
2017-07-04T23:11:45.948Z,57.80
2017-07-04T23:14:13.347Z,57.80
2017-07-04T23:16:40.773Z,58.10
2017-07-04T23:19:08.172Z,58.10
2017-07-04T23:21:35.596Z,58.40
2017-07-04T23:24:03.018Z,58.60
2017-07-04T23:26:31.224Z,58.90
2017-07-04T23:28:58.640Z,58.80
2017-07-04T23:31:26.825Z,59.30
2017-07-04T23:33:54.308Z,59.30
2017-07-04T23:36:21.735Z,59.50
2017-07-04T23:38:49.924Z,59.60
2017-07-04T23:41:17.372Z,59.50
2017-07-04T23:43:45.544Z,59.60
2017-07-04T23:46:12.959Z,59.60
2017-07-04T23:48:40.377Z,59.80
2017-07-04T23:51:07.810Z,59.60
2017-07-04T23:53:35.215Z,59.80
2017-07-04T23:56:02.659Z,59.60
2017-07-04T23:58:30.073Z,59.60
